Weather observations for the past three days for
Fort Stockton, Fort Stockton-Pecos County Airport
| Date | Time (cdt) | Wind (mph) | Vis. (mi.) | Weather | Sky Cond. | Temperature (ºF) | Relative Humidity | Wind Chill (°F) | Heat Index (°F) | Pressure | Precipitation (in) | ||||||
|---|---|---|---|---|---|---|---|---|---|---|---|---|---|---|---|---|---|
| Air | Dwpt | 6 hour | altimeter (in) | sea level (mb) | 1 hr | 3 hr | 6 hr | ||||||||||
| Max. | Min. | ||||||||||||||||
| 10 | 02:53 | S 17 | 10.00 | Fair | CLR | 73.9 | 55 | 52% | 29.84 | 1005.1 | |||||||
| 10 | 01:53 | S 16 | 10.00 | Fair | CLR | 75 | 53.1 | 46% | 78 | 29.85 | 1005.4 | ||||||
| 10 | 00:53 | S 17 G 29 | 10.00 | Fair | CLR | 77 | 48.9 | 93 | 75.9 | 37% | 78 | 29.86 | 1005.8 | ||||
| 09 | 23:53 | S 15 | 10.00 | Fair | CLR | 77 | 39.9 | 26% | 77 | 29.87 | 1006.0 | ||||||
| 09 | 22:53 | S 14 | 10.00 | Fair | CLR | 78.1 | 37 | 23% | 78 | 29.86 | 1006.0 | ||||||
| 09 | 21:53 | SE 12 | 10.00 | Fair | CLR | 81 | 37 | 21% | 79 | 29.84 | 1005.4 | ||||||
| 09 | 20:53 | SE 12 | 10.00 | Fair | CLR | 86 | 35.1 | 16% | 83 | 29.82 | 1004.7 | ||||||
| 09 | 19:53 | SE 10 | 10.00 | Fair | CLR | 91 | 32 | 12% | 87 | 29.8 | 1004.4 | ||||||
| 09 | 18:53 | SE 10 | 10.00 | Fair | CLR | 93 | 27 | 95 | 89.1 | 9% | 88 | 29.81 | 1004.6 | ||||
| 09 | 17:53 | E 7 | 10.00 | Fair | CLR | 93.9 | 27 | 9% | 89 | 29.81 | 1005.0 | ||||||
| 09 | 16:53 | NW 6 | 10.00 | Fair | CLR | 93.9 | 27 | 9% | 89 | 29.83 | 1005.2 | ||||||
| 09 | 15:53 | Calm | 10.00 | Fair | CLR | 93 | 27 | 9% | 88 | 29.84 | 1005.6 | ||||||
| 09 | 14:53 | Vrbl 6 | 10.00 | Fair | CLR | 93.9 | 32 | 11% | 89 | 29.87 | 1006.6 | ||||||
| 09 | 13:53 | E 8 | 10.00 | Fair | CLR | 91.9 | 32 | 12% | 88 | 29.89 | 1007.1 | ||||||
| 09 | 12:53 | Calm | 10.00 | Fair | CLR | 88 | 34 | 89.1 | 57.9 | 15% | 84 | 29.91 | 1008.2 | ||||
| 09 | 11:53 | SE 3 | 10.00 | Fair | CLR | 87.1 | 37 | 17% | 84 | 29.93 | 1008.7 | ||||||
| 09 | 10:53 | E 6 | 10.00 | Fair | CLR | 82.9 | 39.9 | 22% | 81 | 29.94 | 1008.8 | ||||||
| 09 | 09:53 | S 7 | 10.00 | Fair | CLR | 80.1 | 41 | 25% | 79 | 29.94 | 1009.0 | ||||||
| 09 | 08:53 | S 7 | 10.00 | Fair | CLR | 72 | 42.1 | 34% | 29.94 | 1009.2 | |||||||
| 09 | 07:53 | S 10 | 10.00 | Fair | CLR | 62.1 | 41 | 46% | 29.93 | 1009.2 | |||||||
| 09 | 06:53 | S 12 | 10.00 | Fair | CLR | 59 | 43 | 68 | 55.9 | 56% | 29.92 | 1008.9 | |||||
| 09 | 05:53 | S 3 | 10.00 | Fair | CLR | 55.9 | 42.1 | 60% | 29.91 | 1008.9 | |||||||
| 09 | 04:53 | S 10 | 10.00 | Fair | CLR | 60.1 | 41 | 50% | 29.88 | 1007.7 | |||||||
| 09 | 03:53 | S 8 | 10.00 | Fair | CLR | 63 | 39.9 | 43% | 29.88 | 1007.3 | |||||||
| 09 | 02:53 | S 7 | 10.00 | Fair | CLR | 62.1 | 39.9 | 44% | 29.88 | 1007.3 | |||||||
| 09 | 01:53 | S 10 | 10.00 | Fair | CLR | 64.9 | 39.9 | 40% | 29.87 | 1007.2 | |||||||
| 09 | 00:53 | S 12 | 10.00 | Fair | CLR | 66 | 42.1 | 81 | 66 | 42% | 29.88 | 1007.6 | |||||
| 08 | 23:53 | SW 13 | 10.00 | Fair | CLR | 66.9 | 43 | 42% | 29.88 | 1007.7 | |||||||
| 08 | 22:53 | S 14 | 10.00 | Fair | CLR | 73 | 42.1 | 33% | 29.87 | 1007.3 | |||||||
| 08 | 21:53 | S 10 | 10.00 | Fair | CLR | 73.9 | 48.9 | 41% | 29.88 | 1007.6 | |||||||
| 08 | 20:53 | W 3 | 10.00 | Fair | CLR | 77 | 48.9 | 37% | 78 | 29.86 | 1007.0 | ||||||
| 08 | 19:53 | SW 9 | 10.00 | Fair | CLR | 80.1 | 46.9 | 31% | 79 | 29.86 | 1007.1 | ||||||
| 08 | 18:53 | W 10 | 10.00 | A Few Clouds | FEW120 | 81 | 52 | 84.9 | 75 | 37% | 80 | 29.84 | 1006.5 | ||||
| 08 | 17:53 | NW 9 | 10.00 | Fair | CLR | 82 | 53.1 | 37% | 81 | 29.82 | 1005.5 | ||||||
| 08 | 16:53 | Calm | 10.00 | Fair | CLR | 82 | 55 | 40% | 81 | 29.82 | 1005.3 | ||||||
| 08 | 15:53 | N 8 | 10.00 | Fair | CLR | 82 | 55 | 40% | 81 | 29.83 | 1005.9 | ||||||
| 08 | 14:53 | N 5 | 10.00 | Fair | CLR | 81 | 55 | 41% | 81 | 29.84 | 1006.3 | ||||||
| 08 | 13:53 | NW 6 | 10.00 | Fair | CLR | 79 | 55.9 | 45% | 80 | 29.87 | 1007.3 | ||||||
| 08 | 12:53 | NW 7 | 10.00 | Fair | CLR | 75 | 55 | 75 | 57 | 50% | 78 | 29.9 | 1008.4 | ||||
| 08 | 11:53 | Calm | 10.00 | Fair | CLR | 71.1 | 55 | 57% | 29.92 | 1009.2 | |||||||
| 08 | 10:53 | Vrbl 3 | 10.00 | Fair | CLR | 70 | 55 | 59% | 29.93 | 1009.6 | |||||||
| 08 | 09:53 | N 5 | 10.00 | Fair | CLR | 66.9 | 55 | 66% | 29.93 | 1009.9 | |||||||
| 08 | 08:53 | S 5 | 10.00 | Fair | CLR | 63 | 55 | 76% | 29.93 | 1010.0 | |||||||
| 08 | 07:53 | S 7 | 10.00 | Fair | CLR | 57.9 | 55 | 90% | 29.92 | 1009.6 | |||||||
| 08 | 06:53 | S 8 | 10.00 | Fair | CLR | 57 | 54 | 60.1 | 57 | 90% | 29.91 | 1009.3 | |||||
| 08 | 05:53 | SE 8 | 10.00 | Fair | CLR | 57.9 | 54 | 87% | 29.92 | 1009.4 | |||||||
| 08 | 04:53 | S 7 | 10.00 | Fair | CLR | 59 | 55 | 87% | 29.92 | 1009.4 | |||||||
| 08 | 03:53 | SE 8 | 10.00 | Fair | CLR | 57.9 | 55 | 90% | 29.93 | 1009.8 | |||||||
| 08 | 02:53 | SE 10 | 10.00 | A Few Clouds | FEW009 | 59 | 54 | 83% | 29.94 | 1010.1 | |||||||
| 08 | 01:53 | SE 10 | 10.00 | Fair | CLR | 60.1 | 54 | 80% | 29.95 | 1010.5 | |||||||
| 08 | 00:53 | E 12 | 10.00 | Fair | CLR | 60.1 | 53.1 | 71.1 | 60.1 | 78% | 29.97 | 1011.4 | |||||
| 07 | 23:53 | SE 12 | 10.00 | Overcast | OVC015 | 62.1 | 53.1 | 73% | 29.98 | 1012.0 | |||||||
| 07 | 22:53 | SE 9 | 10.00 | Mostly Cloudy | BKN019 | 63 | 52 | 68% | 29.99 | 1012.4 | |||||||
| 07 | 21:53 | E 7 | 10.00 | Fair | CLR | 63 | 50 | 63% | 29.98 | 1011.9 | |||||||
| 07 | 20:53 | SE 14 | 10.00 | Fair | CLR | 64.9 | 48.9 | 56% | 29.96 | 1011.1 | |||||||
| 07 | 19:53 | SE 14 | 10.00 | Fair | CLR | 66.9 | 51.1 | 57% | 29.97 | 1011.5 | |||||||
| 07 | 18:53 | E 14 | 10.00 | A Few Clouds | FEW035 | 71.1 | 51.1 | 73 | 64 | 49% | 29.96 | 1011.1 | |||||
| 07 | 17:53 | E 13 G 20 | 10.00 | Fair | CLR | 71.1 | 50 | 47% | 29.97 | 1011.0 | |||||||
| 07 | 16:53 | E 12 G 17 | 10.00 | Overcast | OVC036 | 70 | 48.9 | 47% | 29.99 | 1011.7 | |||||||
| 07 | 15:53 | SE 9 | 10.00 | Overcast | SCT039 OVC047 | 70 | 48 | 46% | 30.02 | 1012.8 | |||||||
| 07 | 14:53 | E 5 | 10.00 | Overcast | BKN035 OVC042 | 68 | 48.9 | 51% | 30.04 | 1013.6 | |||||||
| 07 | 13:53 | Vrbl 3 | 10.00 | Overcast | OVC031 | 66.9 | 50 | 55% | 30.07 | 1014.3 | |||||||
| 07 | 12:53 | N 7 | 10.00 | Overcast | OVC026 | 64 | 48.9 | 64 | 55.9 | 58% | 30.09 | 1015.3 | |||||
| 07 | 11:53 | NE 7 | 10.00 | Overcast | OVC020 | 62.1 | 48.9 | 62% | 30.12 | 1016.2 | |||||||
| 07 | 10:53 | NE 9 | 10.00 | Overcast | OVC015 | 59 | 48.9 | 69% | 30.13 | 1016.5 | |||||||
| 07 | 09:53 | NE 10 | 10.00 | Overcast | OVC013 | 57 | 48.9 | 74% | 30.13 | 1016.7 | |||||||
| 07 | 08:53 | NE 13 | 10.00 | Overcast | OVC012 | 55.9 | 50 | 81% | 30.12 | 1016.2 | |||||||
| 07 | 07:53 | NE 10 | 10.00 | Overcast | OVC010 | 57 | 51.1 | 81% | 30.1 | 1015.5 | |||||||
| 07 | 06:53 | NE 13 | 10.00 | A Few Clouds | FEW014 | 57 | 51.1 | 70 | 57 | 81% | 30.07 | 1014.2 | |||||
| 07 | 05:53 | NE 7 | 10.00 | A Few Clouds | FEW020 | 60.1 | 52 | 75% | 30.05 | 1013.6 | |||||||
| 07 | 04:53 | SE 12 G 22 | 10.00 | Fair | CLR | 64 | 52 | 65% | 30 | 1011.4 | |||||||
| 07 | 03:53 | SE 9 | 10.00 | Fair | CLR | 66 | 46.9 | 50% | 30 | 1011.5 | |||||||
| Date | Time (cdt) | Wind (mph) | Vis. (mi.) | Weather | Sky Cond. | Air | Dwpt | Max. | Min. | Relative Humidity | Wind Chill (°F) | Heat Index (°F) | altimeter (in) | sea level (mb) | 1 hr | 3 hr | 6 hr |
| 6 hour | |||||||||||||||||
| Temperature (ºF) | Pressure | Precipitation (in) | |||||||||||||||